createdAt,value
2022-08-11T00:19:02.605Z,98622.81
2022-08-11T00:49:17.126Z,98634.78
2022-08-11T01:20:46.181Z,98629.88
2022-08-11T01:50:39.617Z,98631.47
2022-08-11T02:21:05.977Z,98638.88
2022-08-11T02:51:22.482Z,98634.44
2022-08-11T03:22:01.712Z,98624.00
2022-08-11T03:51:58.097Z,98635.69
2022-08-11T04:22:46.606Z,98624.09
2022-08-11T04:53:40.856Z,98643.47
2022-08-11T05:24:06.590Z,98655.28
2022-08-11T05:54:29.718Z,98678.06
2022-08-11T06:24:34.406Z,98691.28
2022-08-11T06:54:41.608Z,98700.03
2022-08-11T07:25:07.982Z,98680.97
2022-08-11T07:55:16.948Z,98671.22
2022-08-11T08:25:21.337Z,98688.09
2022-08-11T08:55:27.701Z,98673.97
2022-08-11T09:25:51.428Z,98683.19
2022-08-11T09:55:56.372Z,98642.44
2022-08-11T10:26:18.856Z,98632.81
2022-08-11T10:56:41.053Z,98593.16
2022-08-11T11:26:56.478Z,98574.88
2022-08-11T11:57:21.299Z,98532.56
2022-08-11T12:27:26.326Z,98507.94
2022-08-11T12:57:54.650Z,98463.47
2022-08-11T13:28:01.350Z,98446.13
2022-08-11T13:58:20.740Z,98421.81
2022-08-11T14:28:38.861Z,98388.13
2022-08-11T14:58:46.670Z,98363.59
2022-08-11T15:29:09.595Z,98338.28
2022-08-11T15:59:41.662Z,98324.19
2022-08-11T16:29:49.197Z,98307.75
2022-08-11T16:59:57.919Z,98287.66
2022-08-11T17:30:04.255Z,98279.41
2022-08-11T18:00:10.332Z,98280.97
2022-08-11T18:30:32.755Z,98286.88
2022-08-11T19:00:56.494Z,98296.88
2022-08-11T19:31:18.301Z,98321.13
2022-08-11T20:01:40.202Z,98352.59
2022-08-11T20:32:22.508Z,98355.06
2022-08-11T21:02:45.300Z,98354.94
2022-08-11T21:33:12.170Z,98374.66
2022-08-11T22:03:41.070Z,98376.31
2022-08-11T22:34:12.140Z,98380.66
2022-08-11T23:04:34.028Z,98379.56
2022-08-11T23:35:04.275Z,98362.31
